createdAt,value
2023-04-16T00:00:59.889Z,2.80
2023-04-16T00:02:03.120Z,2.60
2023-04-16T00:03:06.171Z,2.67
2023-04-16T00:04:09.411Z,3.33
2023-04-16T00:05:12.222Z,3.58
2023-04-16T00:06:15.054Z,3.47
2023-04-16T00:07:17.824Z,3.50
2023-04-16T00:08:20.616Z,3.35
2023-04-16T00:09:23.262Z,2.80
2023-04-16T00:10:26.503Z,3.58
2023-04-16T00:11:29.296Z,3.65
2023-04-16T00:12:32.340Z,3.47
2023-04-16T00:13:35.772Z,4.30
2023-04-16T00:14:38.729Z,5.30
2023-04-16T00:15:41.512Z,5.07
2023-04-16T00:16:44.247Z,3.45
2023-04-16T00:17:47.251Z,5.20
2023-04-16T00:18:50.081Z,5.12
2023-04-16T00:19:53.260Z,5.60
2023-04-16T00:20:56.238Z,6.37
2023-04-16T00:21:59.044Z,5.62
2023-04-16T00:23:02.024Z,5.90
2023-04-16T00:24:05.087Z,6.25
2023-04-16T00:25:08.170Z,5.10
2023-04-16T00:26:11.356Z,5.30
2023-04-16T00:27:14.092Z,4.32
2023-04-16T00:28:17.292Z,4.47
2023-04-16T00:29:20.017Z,4.45
2023-04-16T00:30:23.245Z,4.10
2023-04-16T00:31:33.610Z,5.47
2023-04-16T00:32:36.478Z,5.10
2023-04-16T00:33:39.264Z,3.80
2023-04-16T00:34:42.040Z,4.75
2023-04-16T00:35:48.814Z,3.95
2023-04-16T00:36:51.587Z,3.45
2023-04-16T00:37:54.553Z,3.33
2023-04-16T00:38:57.728Z,3.50
2023-04-16T00:40:01.401Z,3.03
2023-04-16T00:41:04.532Z,3.08
2023-04-16T00:42:07.210Z,2.97
2023-04-16T00:43:10.006Z,3.10
2023-04-16T00:44:12.802Z,3.40
2023-04-16T00:45:16.130Z,2.80
2023-04-16T00:46:24.142Z,3.00
2023-04-16T00:47:28.344Z,5.37
2023-04-16T00:48:33.012Z,2.70
2023-04-16T00:49:36.574Z,2.20
2023-04-16T00:50:39.505Z,2.67
2023-04-16T00:51:42.195Z,5.03
2023-04-16T00:52:47.886Z,5.70
2023-04-16T00:53:50.974Z,3.40
2023-04-16T00:54:54.399Z,7.32
2023-04-16T00:55:57.553Z,10.27
2023-04-16T00:57:00.363Z,11.23
2023-04-16T00:58:03.865Z,11.82
2023-04-16T00:59:07.235Z,7.22
2023-04-16T01:00:10.816Z,9.10
2023-04-16T01:01:14.727Z,8.00
2023-04-16T01:02:17.942Z,11.93
2023-04-16T01:03:21.128Z,12.70
2023-04-16T01:04:24.354Z,14.20
2023-04-16T01:05:27.372Z,15.25
2023-04-16T01:06:30.688Z,15.23
2023-04-16T01:07:33.375Z,12.82
2023-04-16T01:08:36.300Z,13.48
2023-04-16T01:09:39.090Z,13.80
2023-04-16T01:10:42.119Z,13.88
2023-04-16T01:11:44.882Z,14.38
2023-04-16T01:12:47.730Z,14.38
2023-04-16T01:13:50.485Z,13.43
2023-04-16T01:14:53.403Z,14.23
2023-04-16T01:15:56.276Z,14.02
2023-04-16T01:16:59.087Z,13.00
2023-04-16T01:18:01.868Z,12.98
2023-04-16T01:19:04.814Z,13.00
2023-04-16T01:20:08.000Z,12.25
2023-04-16T01:21:11.270Z,11.60
2023-04-16T01:22:14.273Z,12.90
2023-04-16T01:23:19.058Z,13.35
2023-04-16T01:24:24.251Z,12.37
2023-04-16T01:25:26.883Z,11.65
2023-04-16T01:26:29.718Z,11.18
2023-04-16T01:27:32.750Z,12.05
2023-04-16T01:28:36.226Z,10.32
2023-04-16T01:29:38.987Z,10.13
2023-04-16T01:30:42.393Z,11.55
2023-04-16T01:31:47.145Z,10.20
2023-04-16T01:32:50.128Z,9.18
2023-04-16T01:33:52.797Z,9.43
2023-04-16T01:34:55.540Z,10.52
2023-04-16T01:35:58.222Z,9.57
2023-04-16T01:37:00.974Z,9.60
2023-04-16T01:38:04.286Z,9.57
2023-04-16T01:39:07.478Z,10.00
2023-04-16T01:40:11.242Z,9.32
2023-04-16T01:41:14.021Z,9.27
2023-04-16T01:42:16.791Z,9.23
2023-04-16T01:43:19.455Z,10.32
2023-04-16T01:44:23.310Z,9.75
2023-04-16T01:45:26.094Z,9.68
2023-04-16T01:46:31.275Z,9.93
2023-04-16T01:47:34.229Z,9.05
2023-04-16T01:48:37.007Z,9.35
2023-04-16T01:49:39.994Z,9.30
2023-04-16T01:50:42.817Z,9.93
2023-04-16T01:51:45.640Z,9.73
2023-04-16T01:52:48.332Z,10.35
2023-04-16T01:53:51.350Z,9.88
2023-04-16T01:54:54.051Z,8.95
2023-04-16T01:55:56.719Z,9.32
2023-04-16T01:56:59.404Z,8.73
2023-04-16T01:58:02.120Z,9.18
2023-04-16T01:59:05.029Z,7.97
2023-04-16T02:00:08.943Z,8.60
2023-04-16T02:01:11.914Z,9.00
2023-04-16T02:02:16.471Z,8.93
2023-04-16T02:03:19.433Z,8.18
2023-04-16T02:04:22.141Z,8.82
2023-04-16T02:05:24.826Z,8.43
2023-04-16T02:06:27.679Z,8.07
2023-04-16T02:07:32.226Z,7.70
2023-04-16T02:08:35.093Z,7.18
2023-04-16T02:09:39.691Z,7.70
2023-04-16T02:10:42.359Z,8.13
2023-04-16T02:11:45.326Z,7.97
2023-04-16T02:12:48.178Z,7.75
2023-04-16T02:13:51.417Z,7.82
2023-04-16T02:14:54.166Z,6.90
2023-04-16T02:15:56.940Z,6.80
2023-04-16T02:17:00.892Z,6.68
2023-04-16T02:18:03.885Z,6.53
2023-04-16T02:19:07.081Z,6.60
2023-04-16T02:20:11.104Z,6.22
2023-04-16T02:21:14.175Z,6.37
2023-04-16T02:22:17.118Z,6.10
2023-04-16T02:23:19.835Z,5.70
2023-04-16T02:24:22.531Z,5.72
2023-04-16T02:25:25.575Z,5.32
2023-04-16T02:26:29.373Z,5.45
2023-04-16T02:27:32.220Z,5.12
2023-04-16T02:28:35.112Z,5.68
2023-04-16T02:29:38.128Z,5.12
2023-04-16T02:30:41.417Z,5.32
2023-04-16T02:31:44.684Z,5.75
2023-04-16T02:32:47.549Z,5.75
2023-04-16T02:33:50.328Z,6.40
2023-04-16T02:34:53.130Z,6.05
2023-04-16T02:35:55.883Z,6.20
2023-04-16T02:36:58.755Z,6.20
2023-04-16T02:38:02.327Z,6.20
2023-04-16T02:39:05.279Z,6.82
2023-04-16T02:40:08.791Z,6.07
2023-04-16T02:41:11.872Z,6.37
2023-04-16T02:42:14.763Z,5.87
2023-04-16T02:43:17.492Z,6.15
2023-04-16T02:44:20.298Z,6.43
2023-04-16T02:45:23.634Z,6.22
2023-04-16T02:46:26.639Z,6.37
2023-04-16T02:47:29.475Z,6.30
2023-04-16T02:48:32.472Z,6.37
2023-04-16T02:49:36.077Z,6.62
2023-04-16T02:50:38.770Z,6.75
2023-04-16T02:51:41.687Z,7.35
2023-04-16T02:52:44.712Z,6.87
2023-04-16T02:53:47.432Z,6.82
2023-04-16T02:54:50.158Z,7.15
2023-04-16T02:55:56.522Z,7.57
2023-04-16T02:56:59.564Z,7.55
2023-04-16T02:58:02.287Z,8.43
2023-04-16T02:59:05.367Z,8.75
2023-04-16T03:00:08.954Z,8.45
2023-04-16T03:01:11.995Z,8.00
2023-04-16T03:02:14.802Z,8.32
2023-04-16T03:03:17.627Z,8.70
2023-04-16T03:04:20.548Z,8.05
2023-04-16T03:05:23.188Z,8.57
2023-04-16T03:06:26.458Z,7.95
2023-04-16T03:07:29.143Z,9.07
2023-04-16T03:08:31.871Z,8.95
2023-04-16T03:09:34.758Z,8.25
2023-04-16T03:10:37.902Z,8.73
2023-04-16T03:11:40.802Z,8.25
2023-04-16T03:12:43.434Z,8.23
2023-04-16T03:13:46.289Z,7.65
2023-04-16T03:14:52.021Z,8.77
2023-04-16T03:15:54.919Z,8.45
2023-04-16T03:16:58.648Z,8.32
2023-04-16T03:18:06.948Z,7.78
2023-04-16T03:19:09.929Z,8.02
2023-04-16T03:20:14.650Z,8.23
2023-04-16T03:21:17.563Z,7.90
2023-04-16T03:22:21.427Z,8.77
2023-04-16T03:23:24.178Z,8.10
2023-04-16T03:24:28.298Z,8.73
2023-04-16T03:25:31.130Z,8.18
2023-04-16T03:26:34.155Z,8.52
2023-04-16T03:27:36.905Z,9.23
2023-04-16T03:28:39.745Z,8.15
2023-04-16T03:29:42.511Z,9.07
2023-04-16T03:30:51.808Z,9.10
2023-04-16T03:31:54.812Z,8.95
2023-04-16T03:32:57.458Z,8.35
2023-04-16T03:34:00.291Z,8.10
2023-04-16T03:35:04.170Z,7.97
2023-04-16T03:36:07.255Z,8.00
2023-04-16T03:37:12.348Z,8.63
2023-04-16T03:38:15.316Z,8.57
2023-04-16T03:39:18.437Z,9.40
2023-04-16T03:40:21.794Z,8.80
2023-04-16T03:41:24.709Z,8.30
2023-04-16T03:42:27.397Z,8.60
2023-04-16T03:43:30.250Z,8.18
2023-04-16T03:44:32.922Z,9.05
2023-04-16T03:45:35.672Z,8.75
2023-04-16T03:46:38.444Z,8.88
2023-04-16T03:47:41.150Z,8.55
2023-04-16T03:48:44.005Z,8.13
2023-04-16T03:49:47.041Z,8.52
2023-04-16T03:50:49.835Z,8.48
2023-04-16T03:51:53.150Z,8.48
2023-04-16T03:52:55.938Z,8.32
2023-04-16T03:53:58.583Z,7.97
2023-04-16T03:55:03.907Z,8.48
2023-04-16T03:56:06.863Z,7.62
2023-04-16T03:57:09.689Z,8.07
2023-04-16T03:58:12.472Z,8.27
2023-04-16T03:59:15.505Z,8.20
2023-04-16T04:00:18.418Z,8.02
2023-04-16T04:01:21.260Z,8.60
2023-04-16T04:02:24.154Z,9.25
2023-04-16T04:03:27.295Z,8.85
2023-04-16T04:04:30.294Z,9.05
2023-04-16T04:05:45.478Z,9.30
2023-04-16T04:06:48.326Z,8.57
2023-04-16T04:07:51.127Z,8.57
2023-04-16T04:08:54.325Z,8.98
2023-04-16T04:09:57.289Z,8.63
2023-04-16T04:11:00.133Z,8.60
2023-04-16T04:12:03.929Z,8.73
2023-04-16T04:13:07.402Z,8.77
2023-04-16T04:14:10.006Z,7.97
2023-04-16T04:15:12.886Z,8.32
2023-04-16T04:16:15.847Z,8.38
2023-04-16T04:17:18.758Z,8.60
2023-04-16T04:18:21.546Z,7.93
2023-04-16T04:19:24.512Z,7.93
2023-04-16T04:20:27.504Z,7.90
2023-04-16T04:21:31.998Z,7.72
2023-04-16T04:22:35.093Z,7.85
2023-04-16T04:23:37.976Z,8.38
2023-04-16T04:24:40.739Z,7.75
2023-04-16T04:25:43.389Z,7.57
2023-04-16T04:26:46.041Z,7.37
2023-04-16T04:27:49.469Z,7.50
2023-04-16T04:28:52.209Z,7.75
2023-04-16T04:29:54.969Z,7.47
2023-04-16T04:30:59.109Z,7.12
2023-04-16T04:32:02.066Z,7.03
2023-04-16T04:33:04.935Z,6.82
2023-04-16T04:34:07.673Z,7.40
2023-04-16T04:35:10.493Z,7.32
2023-04-16T04:36:13.167Z,7.55
2023-04-16T04:37:16.166Z,6.93
2023-04-16T04:38:20.345Z,6.93
2023-04-16T04:39:23.796Z,7.28
2023-04-16T04:40:26.642Z,7.90
2023-04-16T04:41:29.425Z,6.97
2023-04-16T04:42:32.023Z,7.03
2023-04-16T04:43:34.704Z,7.40
2023-04-16T04:44:37.385Z,6.93
2023-04-16T04:45:40.666Z,7.07
2023-04-16T04:46:43.602Z,6.90
2023-04-16T04:47:46.505Z,6.97
2023-04-16T04:48:49.373Z,7.40
2023-04-16T04:49:52.115Z,7.10
2023-04-16T04:50:54.844Z,7.37
2023-04-16T04:51:57.588Z,6.93
2023-04-16T04:53:00.351Z,6.55
2023-04-16T04:54:03.106Z,6.78
2023-04-16T04:55:06.280Z,6.40
2023-04-16T04:56:12.724Z,7.28
2023-04-16T04:57:16.193Z,7.20
2023-04-16T04:58:18.950Z,7.20
2023-04-16T04:59:21.876Z,6.70
2023-04-16T05:00:25.032Z,7.55
2023-04-16T05:01:27.781Z,6.37
2023-04-16T05:02:30.669Z,6.60
2023-04-16T05:03:33.437Z,6.85
2023-04-16T05:04:36.322Z,7.18
2023-04-16T05:05:42.024Z,6.47
2023-04-16T05:06:45.149Z,6.53
2023-04-16T05:07:48.090Z,6.45
2023-04-16T05:08:51.016Z,6.82
2023-04-16T05:09:53.740Z,6.57
2023-04-16T05:10:56.543Z,6.70
2023-04-16T05:11:59.401Z,6.03
2023-04-16T05:13:02.283Z,5.70
2023-04-16T05:14:05.251Z,6.57
2023-04-16T05:15:08.663Z,6.28
2023-04-16T05:16:11.575Z,6.43
2023-04-16T05:17:14.515Z,6.53
2023-04-16T05:18:17.612Z,6.50
2023-04-16T05:19:20.209Z,6.07
2023-04-16T05:20:24.499Z,6.93
2023-04-16T05:21:27.314Z,6.72
2023-04-16T05:22:30.727Z,7.20
2023-04-16T05:23:33.402Z,6.72
2023-04-16T05:24:36.205Z,6.43
2023-04-16T05:25:38.849Z,6.18
2023-04-16T05:26:41.820Z,6.72
2023-04-16T05:27:44.912Z,7.72
2023-04-16T05:28:47.915Z,6.90
2023-04-16T05:29:50.946Z,7.20
2023-04-16T05:30:53.828Z,7.37
2023-04-16T05:31:56.982Z,6.78
2023-04-16T05:33:00.049Z,6.35
2023-04-16T05:34:02.846Z,6.87
2023-04-16T05:35:06.517Z,6.37
2023-04-16T05:36:09.121Z,7.40
2023-04-16T05:37:12.403Z,6.70
2023-04-16T05:38:15.146Z,6.80
2023-04-16T05:39:18.777Z,6.72
2023-04-16T05:40:21.772Z,6.28
2023-04-16T05:41:24.434Z,6.57
2023-04-16T05:42:27.019Z,6.35
2023-04-16T05:43:29.700Z,6.70
2023-04-16T05:44:32.378Z,6.72
2023-04-16T05:45:39.911Z,6.30
2023-04-16T05:46:43.422Z,5.50
2023-04-16T05:47:46.146Z,6.35
2023-04-16T05:48:49.189Z,6.07
2023-04-16T05:49:52.299Z,6.07
2023-04-16T05:50:55.064Z,6.50
2023-04-16T05:51:57.855Z,6.62
2023-04-16T05:53:00.649Z,6.60
2023-04-16T05:54:03.418Z,7.28
2023-04-16T05:55:07.321Z,7.28
2023-04-16T05:56:10.436Z,6.50
2023-04-16T05:57:14.344Z,6.97
2023-04-16T05:58:17.102Z,6.28
2023-04-16T05:59:19.921Z,6.53
2023-04-16T06:00:22.930Z,6.72
2023-04-16T06:01:25.748Z,5.47
2023-04-16T06:02:30.788Z,5.20
2023-04-16T06:03:33.648Z,5.53
2023-04-16T06:04:37.421Z,5.18
2023-04-16T06:05:40.248Z,5.20
2023-04-16T06:06:43.088Z,5.43
2023-04-16T06:07:45.862Z,5.32
2023-04-16T06:08:48.737Z,5.07
2023-04-16T06:09:51.477Z,4.75
2023-04-16T06:10:54.565Z,4.70
2023-04-16T06:11:58.229Z,5.50
2023-04-16T06:13:01.134Z,5.22
2023-04-16T06:14:03.968Z,4.70
2023-04-16T06:15:07.361Z,4.85
2023-04-16T06:16:10.233Z,4.90
2023-04-16T06:17:13.056Z,4.15
2023-04-16T06:18:15.936Z,5.10
2023-04-16T06:19:18.863Z,5.03
2023-04-16T06:20:22.106Z,4.97
2023-04-16T06:21:25.022Z,5.05
2023-04-16T06:22:27.987Z,4.82
2023-04-16T06:23:30.667Z,4.78
2023-04-16T06:24:33.607Z,4.80
2023-04-16T06:25:36.420Z,4.85
2023-04-16T06:26:39.553Z,4.85
2023-04-16T06:27:42.424Z,4.72
2023-04-16T06:28:45.143Z,4.85
2023-04-16T06:29:47.854Z,5.05
2023-04-16T06:30:50.803Z,4.32
2023-04-16T06:31:53.780Z,4.97
2023-04-16T06:32:56.741Z,4.50
2023-04-16T06:33:59.534Z,4.60
2023-04-16T06:35:02.332Z,4.37
2023-04-16T06:36:05.475Z,4.85
2023-04-16T06:37:10.557Z,4.35
2023-04-16T06:38:13.581Z,4.47
2023-04-16T06:39:16.405Z,4.75
2023-04-16T06:40:19.435Z,4.60
2023-04-16T06:41:23.065Z,4.37
2023-04-16T06:42:26.246Z,4.85
2023-04-16T06:43:30.056Z,4.18
2023-04-16T06:44:33.014Z,4.32
2023-04-16T06:45:35.724Z,4.68
2023-04-16T06:46:38.678Z,4.28
2023-04-16T06:47:41.502Z,4.53
2023-04-16T06:48:44.352Z,4.47
2023-04-16T06:49:47.415Z,4.57
2023-04-16T06:50:50.350Z,4.75
2023-04-16T06:51:53.521Z,4.07
2023-04-16T06:52:56.744Z,4.28
2023-04-16T06:53:59.866Z,3.97
2023-04-16T06:55:02.801Z,4.68
2023-04-16T06:56:06.100Z,4.60
2023-04-16T06:57:08.744Z,4.93
2023-04-16T06:58:11.527Z,4.30
2023-04-16T06:59:14.314Z,4.12
2023-04-16T07:00:17.229Z,4.55
2023-04-16T07:01:20.646Z,4.20
2023-04-16T07:02:24.507Z,4.22
2023-04-16T07:03:27.698Z,4.45
2023-04-16T07:04:30.666Z,3.87
2023-04-16T07:05:33.484Z,4.25
2023-04-16T07:06:36.305Z,4.15
2023-04-16T07:07:39.076Z,3.72
2023-04-16T07:08:41.731Z,4.35
2023-04-16T07:09:44.613Z,3.92
2023-04-16T07:10:47.472Z,3.85
2023-04-16T07:11:50.218Z,3.87
2023-04-16T07:12:53.189Z,4.20
2023-04-16T07:13:55.963Z,3.60
2023-04-16T07:14:59.015Z,4.18
2023-04-16T07:16:01.813Z,4.20
2023-04-16T07:17:04.651Z,4.00
2023-04-16T07:18:07.505Z,3.70
2023-04-16T07:19:10.787Z,3.37
2023-04-16T07:20:13.622Z,3.33
2023-04-16T07:21:16.719Z,3.47
2023-04-16T07:22:19.839Z,3.22
2023-04-16T07:23:22.871Z,3.28
2023-04-16T07:24:25.652Z,3.08
2023-04-16T07:25:28.554Z,3.10
2023-04-16T07:26:31.541Z,3.10
2023-04-16T07:27:34.358Z,3.45
2023-04-16T07:28:37.242Z,3.30
2023-04-16T07:29:41.069Z,3.20
2023-04-16T07:30:44.452Z,3.20
2023-04-16T07:31:47.546Z,3.10
2023-04-16T07:32:51.743Z,3.30
2023-04-16T07:33:54.680Z,3.12
2023-04-16T07:34:57.597Z,3.15
2023-04-16T07:36:00.422Z,2.78
2023-04-16T07:37:03.121Z,3.35
2023-04-16T07:38:06.253Z,2.75
2023-04-16T07:39:09.272Z,3.22
2023-04-16T07:40:12.576Z,2.67
2023-04-16T07:41:15.258Z,2.85
2023-04-16T07:42:17.966Z,3.00
2023-04-16T07:43:20.690Z,3.20
2023-04-16T07:44:23.722Z,5.85
2023-04-16T07:45:26.364Z,5.55
2023-04-16T07:46:36.195Z,6.10
2023-04-16T07:47:49.109Z,3.55
2023-04-16T07:48:52.107Z,2.97
2023-04-16T07:49:54.984Z,6.05
2023-04-16T07:50:58.168Z,3.60
2023-04-16T07:52:01.146Z,3.45
2023-04-16T07:53:04.331Z,3.20
2023-04-16T07:54:07.017Z,3.40
2023-04-16T07:55:10.023Z,3.28
2023-04-16T07:56:12.818Z,5.32
2023-04-16T07:57:16.689Z,3.55
2023-04-16T07:58:19.623Z,8.45
2023-04-16T07:59:23.899Z,3.15
2023-04-16T08:00:27.590Z,5.97
2023-04-16T08:01:30.974Z,3.15
2023-04-16T08:02:34.201Z,6.32
2023-04-16T08:03:37.173Z,2.75
2023-04-16T08:04:41.420Z,10.30
2023-04-16T08:05:44.605Z,3.72
2023-04-16T08:06:48.060Z,10.07
2023-04-16T08:07:50.758Z,8.90
2023-04-16T08:08:53.727Z,8.18
2023-04-16T08:09:56.707Z,2.97
2023-04-16T08:11:00.293Z,2.90
2023-04-16T08:12:04.141Z,5.53
2023-04-16T08:13:06.917Z,3.50
2023-04-16T08:14:09.888Z,2.83
2023-04-16T08:15:12.657Z,6.80
2023-04-16T08:16:18.189Z,3.92
2023-04-16T08:17:21.104Z,3.05
2023-04-16T08:18:24.032Z,3.05
2023-04-16T08:19:26.940Z,3.17
2023-04-16T08:20:29.915Z,2.70
2023-04-16T08:21:33.556Z,5.97
2023-04-16T08:22:36.907Z,3.12
2023-04-16T08:23:39.650Z,7.72
2023-04-16T08:24:42.461Z,5.07
2023-04-16T08:25:45.217Z,3.45
2023-04-16T08:26:48.392Z,2.78
2023-04-16T08:27:51.692Z,3.40
2023-04-16T08:28:54.597Z,12.30
2023-04-16T08:29:57.525Z,8.27
2023-04-16T08:31:00.467Z,18.40
2023-04-16T08:32:03.600Z,3.78
2023-04-16T08:33:06.491Z,9.13
2023-04-16T08:34:11.875Z,3.53
2023-04-16T08:35:14.758Z,3.62
2023-04-16T08:36:20.205Z,9.43
2023-04-16T08:37:24.005Z,7.28
2023-04-16T08:38:26.723Z,3.40
2023-04-16T08:39:29.668Z,4.20
2023-04-16T08:40:35.100Z,8.18
2023-04-16T08:41:43.316Z,4.28
2023-04-16T08:42:57.959Z,2.67
2023-04-16T08:44:05.303Z,6.35
2023-04-16T08:45:14.074Z,3.40
2023-04-16T08:46:18.022Z,3.85
2023-04-16T08:47:25.659Z,3.97
2023-04-16T08:48:34.335Z,3.20
2023-04-16T08:49:43.824Z,2.90
2023-04-16T08:50:48.533Z,3.62
2023-04-16T08:51:53.048Z,7.50
2023-04-16T08:53:03.930Z,2.87
2023-04-16T08:54:15.054Z,3.28
2023-04-16T08:55:21.054Z,2.87
2023-04-16T08:56:24.881Z,2.87
2023-04-16T08:57:31.735Z,3.28
2023-04-16T08:58:35.935Z,3.35
2023-04-16T08:59:39.315Z,2.87
2023-04-16T09:00:43.678Z,2.60
2023-04-16T09:01:49.412Z,2.60
2023-04-16T09:02:53.149Z,2.45
2023-04-16T09:03:56.603Z,2.62
2023-04-16T09:05:01.153Z,2.67
2023-04-16T09:06:05.039Z,2.17
2023-04-16T09:07:09.574Z,2.42
2023-04-16T09:08:13.179Z,2.47
2023-04-16T09:09:17.481Z,2.33
2023-04-16T09:10:20.740Z,2.12
2023-04-16T09:11:24.445Z,2.20
2023-04-16T09:12:27.792Z,2.35
2023-04-16T09:13:32.091Z,2.35
2023-04-16T09:14:36.278Z,2.10
2023-04-16T09:15:40.153Z,2.85
2023-04-16T09:16:43.171Z,2.10
2023-04-16T09:17:46.306Z,2.62
2023-04-16T09:18:49.253Z,2.30
2023-04-16T09:19:52.253Z,1.92
2023-04-16T09:20:56.621Z,2.20
2023-04-16T09:21:59.977Z,1.75
2023-04-16T09:23:02.875Z,1.90
2023-04-16T09:24:06.044Z,1.80
2023-04-16T09:25:10.025Z,2.10
2023-04-16T09:26:12.771Z,3.37
2023-04-16T09:27:16.825Z,2.05
2023-04-16T09:28:43.136Z,2.00
2023-04-16T09:29:46.448Z,1.85
2023-04-16T09:30:49.680Z,2.12
2023-04-16T09:32:05.724Z,2.20
2023-04-16T09:33:23.073Z,2.20
2023-04-16T09:34:26.122Z,27.35
2023-04-16T09:35:48.530Z,2.92
2023-04-16T09:36:51.491Z,3.58
2023-04-16T09:37:58.409Z,2.17
2023-04-16T09:39:01.839Z,1.98
2023-04-16T09:40:05.428Z,2.08
2023-04-16T09:41:09.093Z,2.08
2023-04-16T09:42:12.506Z,1.85
2023-04-16T09:43:17.654Z,1.65
2023-04-16T09:44:20.542Z,2.08
2023-04-16T09:45:23.370Z,2.50
2023-04-16T09:46:35.697Z,2.03
2023-04-16T09:47:44.376Z,1.70
2023-04-16T09:48:47.447Z,4.32
2023-04-16T09:49:50.568Z,2.65
2023-04-16T09:50:53.452Z,1.85
2023-04-16T09:51:57.526Z,2.12
2023-04-16T09:53:02.942Z,2.17
2023-04-16T09:54:07.021Z,1.85
2023-04-16T09:55:09.753Z,2.10
2023-04-16T09:56:13.796Z,1.85
2023-04-16T09:57:25.312Z,11.38
2023-04-16T09:58:29.260Z,12.23
2023-04-16T09:59:34.352Z,2.12
2023-04-16T10:00:43.232Z,1.75
2023-04-16T10:01:57.338Z,2.10
2023-04-16T10:03:18.452Z,1.95
2023-04-16T10:04:22.502Z,11.20
2023-04-16T10:05:26.929Z,13.23
2023-04-16T10:06:34.838Z,2.20
2023-04-16T10:07:38.018Z,1.92
2023-04-16T10:08:51.113Z,1.83
2023-04-16T10:09:54.523Z,4.05
2023-04-16T10:10:57.719Z,11.25
2023-04-16T10:12:00.855Z,10.82
2023-04-16T10:13:04.078Z,3.95
2023-04-16T10:14:07.342Z,3.17
2023-04-16T10:15:10.633Z,9.93
2023-04-16T10:16:13.461Z,5.82
2023-04-16T10:17:17.112Z,2.20
2023-04-16T10:18:21.049Z,1.80
2023-04-16T10:19:25.548Z,1.90
2023-04-16T10:20:28.785Z,2.00
2023-04-16T10:21:34.565Z,1.90
2023-04-16T10:22:37.591Z,2.00
2023-04-16T10:23:40.799Z,1.85
2023-04-16T10:24:44.252Z,1.67
2023-04-16T10:25:49.016Z,4.68
2023-04-16T10:26:55.615Z,1.98
2023-04-16T10:27:59.700Z,1.90
2023-04-16T10:29:03.089Z,2.17
2023-04-16T10:30:07.972Z,1.90
2023-04-16T10:31:12.676Z,2.08
2023-04-16T10:32:18.638Z,1.95
2023-04-16T10:33:23.422Z,1.90
2023-04-16T10:34:27.177Z,2.20
2023-04-16T10:35:30.519Z,3.83
2023-04-16T10:36:37.350Z,14.25
2023-04-16T10:37:41.694Z,2.10
2023-04-16T10:38:50.258Z,1.85
2023-04-16T10:39:53.288Z,5.70
2023-04-16T10:41:04.350Z,2.80
2023-04-16T10:42:15.008Z,2.03
2023-04-16T10:43:19.081Z,2.03
2023-04-16T10:44:25.453Z,1.85
2023-04-16T10:45:33.083Z,1.70
2023-04-16T10:46:41.657Z,2.12
2023-04-16T10:47:44.796Z,1.50
2023-04-16T10:48:50.658Z,2.20
2023-04-16T10:49:53.811Z,3.20
2023-04-16T10:50:58.169Z,1.70
2023-04-16T10:52:17.222Z,1.90
2023-04-16T10:53:23.754Z,4.10
2023-04-16T10:54:28.731Z,5.68
2023-04-16T10:55:31.613Z,2.15
2023-04-16T10:56:36.173Z,2.47
2023-04-16T10:57:39.225Z,2.45
2023-04-16T10:58:42.395Z,1.90
2023-04-16T10:59:46.622Z,2.40
2023-04-16T11:00:51.271Z,3.97
2023-04-16T11:01:59.955Z,3.90
2023-04-16T11:03:04.944Z,2.10
2023-04-16T11:04:19.948Z,2.05
2023-04-16T11:05:24.261Z,1.70
2023-04-16T11:06:28.650Z,3.45
2023-04-16T11:07:36.101Z,2.28
2023-04-16T11:08:53.378Z,1.20
2023-04-16T11:10:04.269Z,1.40
2023-04-16T11:11:08.012Z,3.25
2023-04-16T11:12:13.526Z,3.90
2023-04-16T11:13:17.474Z,1.42
2023-04-16T11:14:20.316Z,1.52
2023-04-16T11:15:23.624Z,2.22
2023-04-16T11:16:26.666Z,1.42
2023-04-16T11:17:42.111Z,1.55
2023-04-16T11:18:51.461Z,1.70
2023-04-16T11:19:55.730Z,2.28
2023-04-16T11:20:59.094Z,1.83
2023-04-16T11:22:02.675Z,1.40
2023-04-16T11:23:11.664Z,1.58
2023-04-16T11:24:14.532Z,1.00
2023-04-16T11:25:24.632Z,1.10
2023-04-16T11:26:32.972Z,1.02
2023-04-16T11:27:36.030Z,1.20
2023-04-16T11:28:39.665Z,1.33
2023-04-16T11:29:42.693Z,0.90
2023-04-16T11:30:46.418Z,1.00
2023-04-16T11:31:53.934Z,1.20
2023-04-16T11:32:57.203Z,1.33
2023-04-16T11:34:01.166Z,1.35
2023-04-16T11:35:18.193Z,1.10
2023-04-16T11:36:21.123Z,1.08
2023-04-16T11:37:37.993Z,1.00
2023-04-16T11:38:43.610Z,1.30
2023-04-16T11:39:53.111Z,1.48
2023-04-16T11:40:55.837Z,1.27
2023-04-16T11:41:58.556Z,1.40
2023-04-16T11:43:15.647Z,1.50
2023-04-16T11:44:25.617Z,1.40
2023-04-16T11:45:28.398Z,1.60
2023-04-16T11:46:40.795Z,1.20
2023-04-16T11:47:52.332Z,1.40
2023-04-16T11:48:56.354Z,1.23
2023-04-16T11:50:16.645Z,1.20
2023-04-16T11:51:19.922Z,1.60
2023-04-16T11:52:30.458Z,1.20
2023-04-16T11:53:33.145Z,1.40
2023-04-16T11:54:36.836Z,1.55
2023-04-16T11:55:46.082Z,1.50
2023-04-16T11:56:50.121Z,1.20
2023-04-16T11:57:53.034Z,1.65
2023-04-16T11:59:19.032Z,1.30
2023-04-16T12:00:24.720Z,1.55
2023-04-16T12:01:27.913Z,1.42
2023-04-16T12:02:38.784Z,1.23
2023-04-16T12:03:46.526Z,1.27
2023-04-16T12:04:49.592Z,1.33
2023-04-16T12:05:52.561Z,1.42
2023-04-16T12:07:08.480Z,1.73
2023-04-16T12:08:12.708Z,1.60
2023-04-16T12:09:27.384Z,1.40
2023-04-16T12:10:31.633Z,1.30
2023-04-16T12:11:41.239Z,1.40
2023-04-16T12:12:44.085Z,1.40
2023-04-16T12:14:11.837Z,1.42
2023-04-16T12:15:14.723Z,1.30
2023-04-16T12:16:21.232Z,1.40
2023-04-16T12:17:24.355Z,1.25
2023-04-16T12:18:27.348Z,1.40
2023-04-16T12:19:30.025Z,1.42
2023-04-16T12:20:43.506Z,1.33
2023-04-16T12:21:50.874Z,1.30
2023-04-16T12:22:55.632Z,1.45
2023-04-16T12:23:58.528Z,1.30
2023-04-16T12:25:12.340Z,1.48
2023-04-16T12:26:15.336Z,1.10
2023-04-16T12:27:18.303Z,1.30
2023-04-16T12:28:35.712Z,1.42
2023-04-16T12:29:38.953Z,1.10
2023-04-16T12:30:50.777Z,1.30
2023-04-16T12:31:54.120Z,1.30
2023-04-16T12:33:26.397Z,1.70
2023-04-16T12:35:52.732Z,1.33
2023-04-16T12:37:11.187Z,1.40
2023-04-16T12:38:15.646Z,1.10
2023-04-16T12:39:18.528Z,1.20
2023-04-16T12:40:21.336Z,1.30
2023-04-16T12:41:24.122Z,1.20
2023-04-16T12:42:28.898Z,1.30
2023-04-16T12:43:31.632Z,1.20
2023-04-16T12:44:34.286Z,1.02
2023-04-16T12:45:40.906Z,1.20
2023-04-16T12:46:44.889Z,1.10
2023-04-16T12:47:48.675Z,1.10
2023-04-16T12:48:51.256Z,1.30
2023-04-16T12:49:54.266Z,1.27
2023-04-16T12:50:57.156Z,1.20
2023-04-16T12:51:59.986Z,1.10
2023-04-16T12:53:02.884Z,1.17
2023-04-16T12:54:07.790Z,1.30
2023-04-16T12:55:11.000Z,1.05
2023-04-16T12:56:13.929Z,1.25
2023-04-16T12:57:17.330Z,1.20
2023-04-16T12:58:20.186Z,1.55
2023-04-16T12:59:23.432Z,1.40
2023-04-16T13:00:26.985Z,1.20
2023-04-16T13:01:30.524Z,1.33
2023-04-16T13:02:33.557Z,1.23
2023-04-16T13:03:37.537Z,1.08
2023-04-16T13:04:40.562Z,1.10
2023-04-16T13:05:43.569Z,1.25
2023-04-16T13:06:46.528Z,1.30
2023-04-16T13:07:49.571Z,1.60
2023-04-16T13:08:52.933Z,1.40
2023-04-16T13:09:55.924Z,1.20
2023-04-16T13:10:58.850Z,1.17
2023-04-16T13:12:01.857Z,1.10
2023-04-16T13:13:06.221Z,1.10
2023-04-16T13:14:09.318Z,1.37
2023-04-16T13:15:12.062Z,1.00
2023-04-16T13:16:15.172Z,1.05
2023-04-16T13:17:18.100Z,1.12
2023-04-16T13:18:21.681Z,1.10
2023-04-16T13:19:24.630Z,1.00
2023-04-16T13:20:27.483Z,1.37
2023-04-16T13:21:30.473Z,1.10
2023-04-16T13:22:33.860Z,1.20
2023-04-16T13:23:36.684Z,1.05
2023-04-16T13:24:39.682Z,1.30
2023-04-16T13:25:42.548Z,1.10
2023-04-16T13:26:45.615Z,1.25
2023-04-16T13:27:48.565Z,1.10
2023-04-16T13:28:51.736Z,1.20
2023-04-16T13:29:54.855Z,1.02
2023-04-16T13:30:58.095Z,1.08
2023-04-16T13:32:01.786Z,1.23
2023-04-16T13:33:04.969Z,1.10
2023-04-16T13:34:07.947Z,1.10
2023-04-16T13:35:11.320Z,1.10
2023-04-16T13:36:14.674Z,1.25
2023-04-16T13:37:18.649Z,1.45
2023-04-16T13:38:21.827Z,1.33
2023-04-16T13:39:24.771Z,2.00
2023-04-16T13:40:27.931Z,2.75
2023-04-16T13:41:31.292Z,3.67
2023-04-16T13:42:34.363Z,1.27
2023-04-16T13:43:37.977Z,1.10
2023-04-16T13:44:41.323Z,1.00
2023-04-16T13:45:44.228Z,1.08
2023-04-16T13:46:48.214Z,1.10
2023-04-16T13:47:51.889Z,0.98
2023-04-16T13:48:55.334Z,1.20
2023-04-16T13:49:58.611Z,1.10
2023-04-16T13:51:01.404Z,1.10
2023-04-16T13:52:04.992Z,0.98
2023-04-16T13:53:08.092Z,1.08
2023-04-16T13:54:11.347Z,1.10
2023-04-16T13:55:14.666Z,1.00
2023-04-16T13:56:17.837Z,1.10
2023-04-16T13:57:22.157Z,1.10
2023-04-16T13:58:25.241Z,0.88
2023-04-16T13:59:28.151Z,1.10
2023-04-16T14:00:31.117Z,1.10
2023-04-16T14:01:33.868Z,0.93
2023-04-16T14:02:36.962Z,1.12
2023-04-16T14:03:41.321Z,0.73
2023-04-16T14:04:44.970Z,0.85
2023-04-16T14:05:47.831Z,0.95
2023-04-16T14:06:50.935Z,1.33
2023-04-16T14:07:53.824Z,1.20
2023-04-16T14:08:56.898Z,0.68
2023-04-16T14:09:59.873Z,0.85
2023-04-16T14:11:03.303Z,1.00
2023-04-16T14:12:08.901Z,1.00
2023-04-16T14:13:12.621Z,0.70